Time;durP1;ratioP1;P1;durP2;ratioP2;P2;SDS_P1;SDS_P2;PMS_P1;PMS_P2;Temp;Humidity;BMP_temperature;BMP_pressure;BME280_temperature;BME280_humidity;BME280_pressure;Samples;Min_cycle;Max_cycle;Signal;HPM_P1;HPM_P2
2022/12/12 00:00:58;;;;;;;2.38;1.30;;;;;;;18.70;37.22;100943.13;16127276;19;130111;-64
2022/12/12 00:06:25;;;;;;;3.22;1.38;;;;;;;18.66;37.33;100942.78;16123314;19;128998;-65
2022/12/12 00:11:47;;;;;;;2.15;1.13;;;;;;;18.63;37.14;100940.50;16122782;19;129525;-65
2022/12/12 00:17:09;;;;;;;2.05;1.38;;;;;;;18.61;37.27;100951.00;16122695;19;129666;-64
2022/12/12 00:22:31;;;;;;;1.75;1.48;;;;;;;18.56;37.10;100946.19;16122709;19;129874;-65
2022/12/12 00:27:52;;;;;;;2.13;1.42;;;;;;;18.54;37.01;100953.06;16122432;19;134062;-65
2022/12/12 00:33:14;;;;;;;1.88;1.15;;;;;;;18.51;37.27;100950.78;16123942;19;129947;-65
2022/12/12 00:38:36;;;;;;;3.67;1.42;;;;;;;18.49;37.11;100950.19;16124543;19;129480;-64
2022/12/12 00:43:57;;;;;;;2.75;1.23;;;;;;;18.44;36.94;100957.31;16122143;19;135797;-64
2022/12/12 00:49:19;;;;;;;2.80;1.67;;;;;;;18.42;37.16;100942.00;16122682;19;129637;-65
2022/12/12 00:54:41;;;;;;;1.75;1.30;;;;;;;18.38;37.13;100951.88;16123235;19;130590;-65
2022/12/12 01:00:05;;;;;;;1.48;1.33;;;;;;;18.35;37.03;100950.41;16123037;19;129783;-65
2022/12/12 01:05:27;;;;;;;2.47;1.45;;;;;;;18.34;36.98;100948.72;16127503;19;129698;-65
2022/12/12 01:10:48;;;;;;;2.60;1.45;;;;;;;18.30;37.08;100958.63;16138385;19;129141;-65
2022/12/12 01:16:11;;;;;;;1.27;1.00;;;;;;;18.28;37.06;100969.94;16135180;19;131194;-65
2022/12/12 01:21:33;;;;;;;4.40;1.73;;;;;;;18.26;37.07;100971.28;16136396;19;130826;-65
2022/12/12 01:26:54;;;;;;;2.28;1.40;;;;;;;18.23;37.01;100980.06;16136643;19;131063;-65
2022/12/12 01:32:16;;;;;;;2.55;1.13;;;;;;;18.21;37.03;100982.25;16134239;19;130361;-65
2022/12/12 01:37:39;;;;;;;2.00;1.30;;;;;;;18.20;37.10;100988.88;16133798;19;129894;-64
2022/12/12 01:43:01;;;;;;;1.90;1.20;;;;;;;18.18;37.05;100991.03;16135338;19;129337;-65
2022/12/12 01:48:28;;;;;;;1.45;1.20;;;;;;;18.16;37.12;100991.25;16138080;19;129632;-64
2022/12/12 01:53:57;;;;;;;1.67;1.30;;;;;;;18.12;36.79;100999.22;16132270;19;130725;-64
2022/12/12 01:59:23;;;;;;;1.85;0.95;;;;;;;18.10;36.77;100995.84;16133289;19;129699;-64
2022/12/12 02:04:44;;;;;;;1.40;1.00;;;;;;;18.08;36.81;100998.03;16134519;19;129695;-65
2022/12/12 02:10:07;;;;;;;2.60;1.20;;;;;;;18.07;36.99;100996.34;16132127;19;130234;-65
2022/12/12 02:15:41;;;;;;;3.03;1.20;;;;;;;18.07;37.02;100989.94;16130862;19;129253;-65
2022/12/12 02:21:14;;;;;;;1.52;0.90;;;;;;;18.03;37.10;101003.44;16130718;19;130514;-65
2022/12/12 02:26:49;;;;;;;1.98;1.17;;;;;;;18.02;36.85;101010.06;16129997;19;129628;-65
2022/12/12 02:32:20;;;;;;;1.10;1.00;;;;;;;17.99;36.97;101005.84;16131460;19;129268;-66
2022/12/12 02:38:11;;;;;;;1.02;0.90;;;;;;;17.97;36.62;101005.25;16131206;19;130621;-68
2022/12/12 02:44:17;;;;;;;1.10;1.00;;;;;;;17.95;36.61;101003.81;16131244;19;135026;-67
2022/12/12 02:50:05;;;;;;;1.75;1.17;;;;;;;17.93;36.59;101000.44;16119712;19;130061;-65
2022/12/12 02:55:27;;;;;;;1.30;1.02;;;;;;;17.88;36.76;101003.91;16117184;19;129535;-65
2022/12/12 03:01:09;;;;;;;1.65;1.20;;;;;;;17.89;36.93;101001.97;16119989;19;129634;-64
2022/12/12 03:12:39;;;;;;;1.33;1.05;;;;;;;17.84;36.61;101003.56;16116506;19;129892;-65
2022/12/12 03:18:03;;;;;;;1.70;1.30;;;;;;;17.80;36.45;101005.09;16119380;19;131003;-65
2022/12/12 03:23:42;;;;;;;1.40;1.15;;;;;;;17.82;36.53;101015.94;16116804;19;130416;-64
2022/12/12 03:29:15;;;;;;;1.65;1.15;;;;;;;17.80;36.65;101007.88;16127538;19;129287;-64
2022/12/12 03:34:42;;;;;;;1.83;1.30;;;;;;;17.77;36.78;101016.66;16127282;19;129722;-64
2022/12/12 03:40:09;;;;;;;1.75;1.10;;;;;;;17.76;36.82;101016.91;16124101;19;130380;-64
2022/12/12 03:45:40;;;;;;;1.60;1.00;;;;;;;17.73;36.72;101012.66;16128143;19;130080;-64
2022/12/12 03:51:10;;;;;;;1.50;1.33;;;;;;;17.74;36.52;101025.41;16125695;19;129749;-64
2022/12/12 03:56:57;;;;;;;1.50;1.17;;;;;;;17.71;36.41;101022.28;16128782;19;130038;-65
2022/12/12 04:02:37;;;;;;;1.70;1.17;;;;;;;17.68;36.40;101024.44;16120169;19;129880;-65
2022/12/12 04:08:08;;;;;;;1.15;1.00;;;;;;;17.67;36.22;101024.69;16125020;19;130783;-66
2022/12/12 04:13:55;;;;;;;2.00;1.10;;;;;;;17.65;36.49;101018.53;16126370;19;129473;-65
2022/12/12 04:25:09;;;;;;;1.70;1.17;;;;;;;17.61;36.37;101045.00;16124967;19;129810;-64
2022/12/12 04:30:33;;;;;;;1.00;0.90;;;;;;;17.56;36.45;101037.41;16125237;19;129325;-64
2022/12/12 04:35:59;;;;;;;1.00;0.90;;;;;;;17.56;36.53;101034.63;16121860;19;129383;-64
2022/12/12 04:41:21;;;;;;;1.00;0.90;;;;;;;17.53;36.16;101041.47;16119968;19;129034;-65
2022/12/12 04:46:47;;;;;;;1.60;1.00;;;;;;;17.53;36.37;101052.53;16124111;19;131161;-64
2022/12/12 04:52:12;;;;;;;1.00;0.90;;;;;;;17.51;36.44;101049.16;16121649;19;129800;-65
2022/12/12 04:57:40;;;;;;;1.30;1.00;;;;;;;17.50;36.56;101047.47;16124261;19;129268;-64
2022/12/12 05:03:15;;;;;;;1.42;1.00;;;;;;;17.49;36.45;101040.25;16121633;19;129103;-65
2022/12/12 05:08:47;;;;;;;1.10;0.98;;;;;;;17.49;36.13;101044.94;16119753;19;130014;-64
2022/12/12 05:14:14;;;;;;;0.90;0.80;;;;;;;17.46;36.15;101043.50;16117567;19;129820;-63
2022/12/12 05:19:36;;;;;;;0.80;0.80;;;;;;;17.45;36.23;101047.34;16119905;19;129748;-64
2022/12/12 05:24:57;;;;;;;1.70;1.10;;;;;;;17.43;36.12;101057.78;16119437;19;132826;-64
2022/12/12 05:30:19;;;;;;;1.20;0.77;;;;;;;17.42;36.31;101045.03;16118484;19;129720;-64
2022/12/12 05:35:41;;;;;;;0.80;0.80;;;;;;;17.42;36.03;101052.47;16119178;19;129909;-65
2022/12/12 05:41:04;;;;;;;1.02;0.90;;;;;;;17.41;36.01;101048.06;16120050;19;131424;-65
2022/12/12 05:46:25;;;;;;;1.05;0.88;;;;;;;17.38;36.15;101052.09;16118967;19;130921;-65
2022/12/12 05:51:47;;;;;;;1.15;0.80;;;;;;;17.36;36.12;101057.03;16125335;19;131739;-64
2022/12/12 05:57:09;;;;;;;0.85;0.70;;;;;;;17.34;36.24;101064.72;16132473;19;130473;-64
2022/12/12 06:02:31;;;;;;;1.10;1.00;;;;;;;17.32;36.03;101061.34;16132676;19;131231;-64
2022/12/12 06:07:53;;;;;;;1.10;0.80;;;;;;;17.33;35.90;101063.03;16131666;19;129901;-64
2022/12/12 06:13:14;;;;;;;1.10;0.90;;;;;;;17.33;36.11;101069.41;16131958;19;129792;-65
2022/12/12 06:18:36;;;;;;;3.70;1.25;;;;;;;17.32;36.26;101072.41;16131049;19;129759;-65
2022/12/12 06:23:58;;;;;;;2.92;1.08;;;;;;;17.31;36.16;101070.72;16132262;19;129835;-65
2022/12/12 06:29:20;;;;;;;1.63;1.00;;;;;;;17.30;36.15;101072.63;16131141;19;129499;-65
2022/12/12 06:34:42;;;;;;;1.92;1.10;;;;;;;17.30;36.05;101071.81;16133278;19;129318;-65
2022/12/12 06:40:04;;;;;;;2.47;0.98;;;;;;;17.29;36.28;101081.16;16133689;19;130399;-65
2022/12/12 06:45:26;;;;;;;4.80;1.38;;;;;;;17.29;36.07;101086.69;16130241;19;129267;-65
2022/12/12 06:50:47;;;;;;;3.20;1.42;;;;;;;17.28;36.23;101094.16;16131448;19;131615;-65
2022/12/12 06:56:13;;;;;;;4.63;1.30;;;;;;;17.26;35.80;101101.84;16128195;19;130676;-65
2022/12/12 07:01:35;;;;;;;;;;;;;;;17.21;35.87;101107.22;16125668;19;129499;-64
2022/12/12 07:06:57;;;;;;;4.40;1.25;;;;;;;17.22;36.09;101106.16;16129660;19;130178;-64
2022/12/12 07:12:19;;;;;;;2.05;1.38;;;;;;;17.18;35.90;101105.78;16128511;19;129572;-65
2022/12/12 07:17:40;;;;;;;1.90;1.05;;;;;;;17.18;35.77;101099.38;16129766;19;129661;-64
2022/12/12 07:23:02;;;;;;;4.97;1.60;;;;;;;17.15;36.08;101119.22;16130007;19;130796;-64
2022/12/12 07:28:24;;;;;;;1.33;0.93;;;;;;;17.14;36.12;101123.06;16126475;19;130324;-65
2022/12/12 07:33:46;;;;;;;2.72;1.38;;;;;;;17.11;36.22;101116.06;16127553;19;129743;-64
2022/12/12 07:39:08;;;;;;;5.72;1.48;;;;;;;17.08;35.91;101122.91;16126490;19;129262;-65
2022/12/12 07:44:30;;;;;;;2.47;1.40;;;;;;;17.06;36.12;101132.50;16129066;19;129175;-58
2022/12/12 07:49:53;;;;;;;3.65;1.73;;;;;;;17.05;35.65;101130.81;16127290;19;129696;-59
2022/12/12 07:55:15;;;;;;;2.15;1.17;;;;;;;17.04;35.92;101129.13;16127532;19;130303;-57
2022/12/12 08:00:37;;;;;;;3.45;1.30;;;;;;;17.04;35.90;101138.28;16131503;19;129635;-59
2022/12/12 08:05:58;;;;;;;3.83;1.20;;;;;;;17.06;35.63;101146.31;16128752;19;129191;-59
2022/12/12 08:11:23;;;;;;;2.13;1.27;;;;;;;17.05;35.97;101155.69;16126303;19;129350;-58
2022/12/12 08:16:44;;;;;;;1.55;1.08;;;;;;;17.05;35.95;101161.22;16123732;19;129463;-59
2022/12/12 08:22:07;;;;;;;1.83;1.30;;;;;;;17.05;35.92;101156.53;16125853;19;129680;-58
2022/12/12 08:27:29;;;;;;;2.70;1.25;;;;;;;17.06;35.58;101168.44;16127132;19;129349;-57
2022/12/12 08:32:50;;;;;;;14.25;1.75;;;;;;;17.06;35.75;101190.53;16119797;19;129471;-59
2022/12/12 08:38:13;;;;;;;8.55;1.90;;;;;;;17.04;35.87;101171.44;16124557;19;130298;-59
2022/12/12 08:43:36;;;;;;;4.22;1.60;;;;;;;17.06;35.69;101168.44;16125599;19;131101;-58
2022/12/12 08:48:58;;;;;;;4.97;1.65;;;;;;;17.05;35.96;101161.22;16125817;19;129717;-58
2022/12/12 08:54:20;;;;;;;12.45;2.15;;;;;;;17.05;35.48;101170.34;16122541;19;129287;-58
2022/12/12 08:59:41;;;;;;;3.58;1.70;;;;;;;17.03;35.43;101166.13;16124427;19;130584;-59
2022/12/12 09:05:04;;;;;;;3.88;1.60;;;;;;;17.03;35.40;101178.03;16119337;19;129752;-58
2022/12/12 09:10:26;;;;;;;4.43;1.98;;;;;;;17.03;35.75;101171.66;16120684;19;129467;-58
2022/12/12 09:15:50;;;;;;;5.60;1.90;;;;;;;17.03;35.70;101163.34;16122402;19;129689;-58
2022/12/12 09:21:12;;;;;;;7.03;1.70;;;;;;;17.01;35.47;101171.91;16123670;19;129355;-60
2022/12/12 09:26:34;;;;;;;6.15;1.92;;;;;;;17.02;35.67;101168.06;16130628;19;129649;-56
2022/12/12 09:31:56;;;;;;;4.43;1.63;;;;;;;16.99;35.65;101178.69;16140512;19;130193;-58
2022/12/12 09:37:17;;;;;;;2.60;1.73;;;;;;;16.98;35.41;101188.09;16135975;19;129494;-59
2022/12/12 09:42:48;;;;;;;4.53;1.65;;;;;;;16.99;35.85;101187.00;16136243;19;129770;-58
2022/12/12 09:48:17;;;;;;;3.53;1.88;;;;;;;16.97;35.29;101180.88;16135863;19;129574;-59
2022/12/12 09:53:42;;;;;;;4.22;1.67;;;;;;;16.94;35.45;101182.16;16135745;19;129689;-56
2022/12/12 09:59:23;;;;;;;5.73;1.77;;;;;;;16.95;35.84;101174.72;16135480;19;130218;-58
2022/12/12 10:05:01;;;;;;;2.67;1.50;;;;;;;16.92;35.77;101185.16;16133021;19;129189;-60
2022/12/12 10:10:30;;;;;;;3.45;1.63;;;;;;;16.92;35.53;101184.31;16136139;19;130245;-59
2022/12/12 10:16:07;;;;;;;1.60;1.23;;;;;;;16.91;36.00;101177.94;16134326;19;129448;-59
2022/12/12 10:21:32;;;;;;;3.22;1.70;;;;;;;16.88;35.74;101172.88;16135226;19;130116;-59
2022/12/12 10:26:54;;;;;;;;;;;;;;;16.84;35.98;101171.66;16136262;19;129487;-59
2022/12/12 10:32:35;;;;;;;3.22;1.48;;;;;;;16.88;35.76;101166.50;16135766;19;130404;-59
2022/12/12 10:37:59;;;;;;;2.20;1.60;;;;;;;16.86;35.82;101180.53;16132007;19;129209;-60
2022/12/12 10:43:22;;;;;;;4.13;1.70;;;;;;;16.85;35.71;101165.06;16133399;19;129888;-59
2022/12/12 10:48:47;;;;;;;2.45;1.40;;;;;;;16.87;35.84;101164.81;16132668;19;131029;-59
2022/12/12 10:54:21;;;;;;;4.78;1.80;;;;;;;16.87;35.55;101149.06;16130697;19;129173;-59
2022/12/12 10:59:45;;;;;;;4.63;1.52;;;;;;;16.86;35.56;101169.47;16131109;19;129468;-59
2022/12/12 11:05:15;;;;;;;4.32;1.60;;;;;;;16.87;35.86;101165.63;16131863;19;129228;-59
2022/12/12 11:10:37;;;;;;;2.55;1.80;;;;;;;16.85;35.84;101162.28;16131230;19;129405;-59
2022/12/12 11:16:05;;;;;;;4.10;1.30;;;;;;;16.86;35.80;101158.41;16130183;19;128952;-59
2022/12/12 11:21:35;;;;;;;3.42;1.50;;;;;;;16.84;35.88;101149.53;16132929;19;129623;-59
2022/12/12 11:26:59;;;;;;;2.90;1.40;;;;;;;16.84;36.07;101144.00;16131081;19;129467;-60
2022/12/12 11:32:28;;;;;;;3.65;1.55;;;;;;;16.83;36.03;101142.31;16128632;19;129953;-60
2022/12/12 11:37:54;;;;;;;1.80;1.40;;;;;;;16.82;35.87;101124.06;16130245;19;129305;-59
2022/12/12 11:43:27;;;;;;;3.08;1.50;;;;;;;16.83;35.88;101119.34;16128703;19;129333;-59
2022/12/12 11:48:52;;;;;;;1.80;1.40;;;;;;;16.80;35.87;101111.56;16127908;19;129783;-59
2022/12/12 11:54:21;;;;;;;6.77;1.53;;;;;;;16.79;36.18;101107.09;16127808;19;129736;-58
2022/12/12 11:59:57;;;;;;;3.80;1.30;;;;;;;16.77;35.70;101105.41;16127523;19;129775;-59
2022/12/12 12:05:26;;;;;;;3.88;1.55;;;;;;;16.74;35.94;101093.94;16123604;19;129282;-58
2022/12/12 12:11:22;;;;;;;3.30;1.80;;;;;;;16.74;35.81;101105.84;16121644;19;130616;-61
2022/12/12 12:16:45;;;;;;;2.17;1.50;;;;;;;16.70;35.72;101098.25;16120734;19;129336;-67
2022/12/12 12:22:43;;;;;;;2.90;1.60;;;;;;;16.70;35.92;101106.53;16123169;19;129428;-64
2022/12/12 12:28:23;;;;;;;;;;;;;;;16.63;35.57;101099.13;16128303;19;130207;-68
2022/12/12 12:33:47;;;;;;;7.63;2.20;;;;;;;16.65;35.91;101092.53;16129153;19;129509;-61
2022/12/12 12:39:19;;;;;;;4.28;1.90;;;;;;;16.63;35.87;101088.06;16126931;19;129193;-59
2022/12/12 12:44:46;;;;;;;5.85;1.80;;;;;;;16.62;35.63;101089.16;16127892;19;129618;-60
2022/12/12 12:50:22;;;;;;;4.15;1.73;;;;;;;16.65;35.90;101078.72;16125501;19;130313;-60
2022/12/12 12:55:49;;;;;;;3.25;1.70;;;;;;;16.61;35.95;101076.44;16126957;19;129080;-60
2022/12/12 13:01:17;;;;;;;3.92;1.65;;;;;;;16.61;36.01;101076.44;16122894;19;129278;-58
2022/12/12 13:06:46;;;;;;;7.03;1.95;;;;;;;16.62;35.77;101072.56;16122995;19;129318;-59
2022/12/12 13:12:29;;;;;;;1.95;1.45;;;;;;;16.62;35.73;101068.97;16123433;19;130156;-59
2022/12/12 13:18:03;;;;;;;3.97;1.65;;;;;;;16.61;35.88;101059.88;16122479;19;129542;-59
2022/12/12 13:23:46;;;;;;;4.22;1.73;;;;;;;16.58;35.90;101065.84;16119433;19;129451;-59
2022/12/12 13:29:28;;;;;;;6.03;1.35;;;;;;;16.57;36.07;101077.97;16116419;19;131345;-51
2022/12/12 13:34:55;;;;;;;3.10;1.50;;;;;;;16.56;35.62;101079.03;16120066;19;129940;-58
2022/12/12 13:40:27;;;;;;;3.45;1.42;;;;;;;16.56;35.98;101076.25;16122654;19;129318;-58
2022/12/12 13:45:49;;;;;;;4.05;1.33;;;;;;;16.55;35.98;101080.09;16120983;19;129340;-59
2022/12/12 13:51:29;;;;;;;2.00;1.50;;;;;;;16.57;35.77;101077.97;16121151;19;129345;-57
2022/12/12 13:56:51;;;;;;;2.50;1.63;;;;;;;16.56;35.64;101070.75;16121378;19;130057;-58
2022/12/12 14:02:22;;;;;;;1.98;1.45;;;;;;;16.57;35.64;101077.97;16120032;19;134474;-58
2022/12/12 14:07:49;;;;;;;1.98;1.30;;;;;;;16.56;36.02;101079.03;16121909;19;130257;-58
2022/12/12 14:13:20;;;;;;;3.92;1.75;;;;;;;16.57;35.88;101077.97;16131427;19;129328;-59
2022/12/12 14:18:50;;;;;;;3.65;1.45;;;;;;;16.56;35.94;101070.75;16136592;19;129451;-57
2022/12/12 14:24:31;;;;;;;4.68;1.38;;;;;;;16.55;35.56;101069.06;16135321;19;129455;-58
2022/12/12 14:29:53;;;;;;;2.72;1.52;;;;;;;16.54;35.69;101061.00;16135037;19;134253;-58
2022/12/12 14:35:30;;;;;;;2.45;1.65;;;;;;;16.55;35.41;101060.75;16138858;19;130797;-56
2022/12/12 14:40:59;;;;;;;2.45;1.48;;;;;;;16.54;35.62;101070.13;16137750;19;129126;-57
2022/12/12 14:46:21;;;;;;;3.13;1.60;;;;;;;16.52;35.63;101068.66;16165214;19;129683;-59
2022/12/12 14:51:49;;;;;;;3.03;1.50;;;;;;;16.52;35.64;101069.50;16219999;19;129178;-63
2022/12/12 14:57:18;;;;;;;2.10;1.48;;;;;;;16.50;35.88;101092.91;16215656;19;127925;-59
2022/12/12 15:02:47;;;;;;;2.38;1.20;;;;;;;16.48;35.60;101095.91;16216636;19;128361;-59
2022/12/12 15:08:18;;;;;;;3.15;1.50;;;;;;;16.47;35.38;101094.22;16213237;19;129889;-59
2022/12/12 15:14:22;;;;;;;2.42;1.80;;;;;;;16.44;35.57;101106.53;16216752;19;129596;-57
2022/12/12 15:19:51;;;;;;;2.50;1.40;;;;;;;16.44;35.80;101111.22;16214555;19;129565;-58
2022/12/12 15:25:18;;;;;;;3.70;1.60;;;;;;;16.42;35.39;101102.31;16211910;19;133368;-59
2022/12/12 15:30:42;;;;;;;2.60;1.48;;;;;;;16.40;35.44;101104.47;16212793;19;128436;-58
2022/12/12 15:36:17;;;;;;;2.15;1.58;;;;;;;16.41;35.58;101106.16;16206139;19;128221;-57
2022/12/12 15:41:39;;;;;;;3.10;1.88;;;;;;;16.37;35.33;101113.22;16209981;19;128910;-58
2022/12/12 15:47:01;;;;;;;1.88;1.52;;;;;;;16.35;35.50;101107.06;16207658;19;130496;-59
2022/12/12 15:52:29;;;;;;;2.83;2.00;;;;;;;16.35;35.61;101107.06;16211206;19;130286;-59
2022/12/12 15:57:51;;;;;;;3.38;2.00;;;;;;;16.31;35.70;101110.28;16211868;19;129838;-60
2022/12/12 16:03:16;;;;;;;3.90;2.03;;;;;;;16.32;35.50;101119.38;16210149;19;131417;-58
2022/12/12 16:08:44;;;;;;;3.45;2.17;;;;;;;16.31;35.20;101117.69;16213867;19;128543;-58
2022/12/12 16:14:28;;;;;;;2.70;1.75;;;;;;;16.31;35.41;101117.69;16209714;19;128346;-59
2022/12/12 16:20:00;;;;;;;3.00;1.67;;;;;;;16.28;35.63;101115.41;16208067;19;128989;-59
2022/12/12 16:25:28;;;;;;;3.17;1.70;;;;;;;16.28;35.53;101119.00;16208788;19;129324;-59
2022/12/12 16:30:59;;;;;;;3.88;2.28;;;;;;;16.28;35.07;101119.00;16207185;19;129952;-58
2022/12/12 16:36:21;;;;;;;7.03;2.40;;;;;;;16.32;35.41;101106.44;16205095;19;129204;-60
2022/12/12 16:41:43;;;;;;;2.70;1.83;;;;;;;16.79;34.86;101113.44;16170073;19;129513;-58
2022/12/12 16:47:22;;;;;;;3.72;1.67;;;;;;;17.59;34.21;101110.81;16122883;19;129532;-56
2022/12/12 16:52:44;;;;;;;4.55;1.80;;;;;;;18.29;33.34;101104.56;16132956;19;129600;-64
2022/12/12 16:58:06;;;;;;;4.18;2.22;;;;;;;18.98;32.63;101094.78;16154730;19;129695;-65
2022/12/12 17:03:29;;;;;;;3.50;2.38;;;;;;;19.52;32.40;101096.44;16137583;19;133063;-60
2022/12/12 17:08:51;;;;;;;3.28;2.15;;;;;;;19.88;31.84;101105.44;16130475;19;130247;-68
2022/12/12 17:14:21;;;;;;;4.53;2.83;;;;;;;20.07;30.95;101105.22;16124791;19;134767;-66
2022/12/12 17:19:42;;;;;;;5.18;2.60;;;;;;;20.13;30.79;101109.78;16122177;19;131051;-62
2022/12/12 17:25:05;;;;;;;5.05;2.72;;;;;;;20.08;31.02;101106.91;16167197;19;129546;-59
2022/12/12 17:30:27;;;;;;;3.88;2.40;;;;;;;19.92;30.81;101109.41;16159614;19;129687;-58
2022/12/12 17:35:57;;;;;;;6.40;2.60;;;;;;;19.73;31.38;101107.91;16124404;19;129401;-57
2022/12/12 17:41:19;;;;;;;4.63;2.67;;;;;;;19.49;31.39;101105.25;16119738;19;129398;-58
2022/12/12 17:46:41;;;;;;;4.57;2.50;;;;;;;19.31;31.60;101095.19;16125262;19;129156;-57
2022/12/12 17:52:03;;;;;;;5.65;3.45;;;;;;;19.11;31.79;101102.00;16140918;19;129534;-58
2022/12/12 17:57:25;;;;;;;6.40;3.17;;;;;;;18.94;31.97;101093.59;16138910;19;129630;-57
2022/12/12 18:02:47;;;;;;;5.75;3.53;;;;;;;18.89;32.17;101085.16;16137670;19;129657;-60
2022/12/12 18:08:11;;;;;;;5.70;3.58;;;;;;;18.97;31.88;101092.25;16135779;19;129931;-58
2022/12/12 18:13:33;;;;;;;5.95;3.00;;;;;;;19.07;32.19;101098.88;16136003;19;130689;-58
2022/12/12 18:18:56;;;;;;;5.38;3.20;;;;;;;19.20;31.88;101091.38;16134805;19;129651;-57
2022/12/12 18:24:20;;;;;;;5.60;2.80;;;;;;;19.36;32.10;101103.63;16138413;19;135223;-58
2022/12/12 18:29:42;;;;;;;5.20;3.03;;;;;;;19.62;31.82;101106.91;16136110;19;129654;-58
2022/12/12 18:35:04;;;;;;;4.45;2.47;;;;;;;20.04;31.36;101100.19;16132122;19;129341;-58
2022/12/12 18:40:25;;;;;;;11.65;3.13;;;;;;;20.44;30.88;101105.56;16132153;19;129492;-57
2022/12/12 18:45:47;;;;;;;7.45;3.30;;;;;;;20.78;30.80;101098.25;16135801;19;129460;-56
2022/12/12 18:51:23;;;;;;;9.02;3.35;;;;;;;21.10;30.40;101095.63;16130718;19;129211;-53
2022/12/12 18:56:46;;;;;;;5.40;2.78;;;;;;;21.33;30.52;101099.25;16130002;19;129533;-55
2022/12/12 19:02:11;;;;;;;6.15;3.15;;;;;;;21.46;29.77;101086.88;16130040;19;129754;-52
2022/12/12 19:07:33;;;;;;;8.73;2.47;;;;;;;21.50;30.25;101093.59;16132493;19;129468;-56
2022/12/12 19:12:55;;;;;;;4.63;2.58;;;;;;;21.42;30.04;101096.84;16134097;19;129804;-55
2022/12/12 19:18:16;;;;;;;5.32;3.10;;;;;;;21.21;30.49;101086.31;16129117;19;130267;-53
2022/12/12 19:23:39;;;;;;;17.08;4.45;;;;;;;20.93;30.71;101086.50;16130947;19;129625;-57
2022/12/12 19:29:03;;;;;;;12.25;4.55;;;;;;;20.67;31.20;101112.00;16133902;19;129492;-57
2022/12/12 19:34:25;;;;;;;11.33;4.67;;;;;;;20.46;31.69;101102.50;16129595;19;130214;-59
2022/12/12 19:39:49;;;;;;;13.32;4.45;;;;;;;20.32;31.67;101101.16;16130121;19;129876;-52
2022/12/12 19:45:11;;;;;;;19.85;4.90;;;;;;;20.15;32.04;101104.81;16136974;19;129732;-59
2022/12/12 19:50:36;;;;;;;20.35;4.72;;;;;;;19.98;32.36;101102.81;16135714;19;131447;-60
2022/12/12 19:55:57;;;;;;;14.90;4.10;;;;;;;19.82;32.88;101101.72;16128117;19;131356;-50
2022/12/12 20:01:27;;;;;;;12.35;4.40;;;;;;;19.67;32.85;101102.28;16128766;19;130015;-58
2022/12/12 20:06:49;;;;;;;12.75;4.15;;;;;;;19.54;33.06;101108.16;16131385;19;130316;-52
2022/12/12 20:12:11;;;;;;;11.73;3.90;;;;;;;19.53;33.42;101114.78;16125586;19;129817;-55
2022/12/12 20:17:33;;;;;;;14.18;4.03;;;;;;;19.84;33.75;101110.66;16130493;19;129865;-54
2022/12/12 20:22:55;;;;;;;17.70;4.20;;;;;;;20.24;32.98;101108.84;16127853;19;129532;-57
2022/12/12 20:28:17;;;;;;;12.35;4.35;;;;;;;20.51;32.64;101099.81;16126558;19;129480;-57
2022/12/12 20:33:39;;;;;;;17.65;3.75;;;;;;;20.60;33.00;101112.19;16128054;19;129310;-58
2022/12/12 20:39:05;;;;;;;10.05;4.30;;;;;;;20.53;32.78;101103.19;16122334;19;130993;-54
2022/12/12 20:44:27;;;;;;;;;;;;;;;20.36;32.08;101106.00;16125472;19;129847;-59
2022/12/12 20:49:49;;;;;;;16.30;4.55;;;;;;;20.26;32.80;101109.44;16126460;19;129892;-57
2022/12/12 20:55:11;;;;;;;16.65;3.90;;;;;;;20.13;33.13;101116.16;16125583;19;130725;-58
2022/12/12 21:00:35;;;;;;;12.20;4.07;;;;;;;20.04;32.84;101114.06;16126950;19;129447;-59
2022/12/12 21:05:58;;;;;;;9.68;3.55;;;;;;;19.99;33.52;101112.03;16127339;19;130092;-55
2022/12/12 21:11:22;;;;;;;11.93;4.07;;;;;;;19.94;33.56;101117.47;16124253;19;129491;-50
2022/12/12 21:16:44;;;;;;;12.32;3.65;;;;;;;19.85;33.18;101119.81;16125721;19;129852;-56
2022/12/12 21:22:07;;;;;;;7.25;3.30;;;;;;;19.77;33.39;101111.91;16128102;19;130911;-50
2022/12/12 21:27:30;;;;;;;10.45;3.50;;;;;;;19.64;33.77;101116.66;16139702;19;129496;-50
2022/12/12 21:32:51;;;;;;;10.15;3.63;;;;;;;19.54;33.75;101113.69;16143217;19;129624;-53
2022/12/12 21:38:13;;;;;;;10.77;3.25;;;;;;;19.44;33.75;101119.06;16138405;19;130285;-50
2022/12/12 21:43:35;;;;;;;9.63;3.47;;;;;;;19.34;34.36;101109.41;16141377;19;130500;-49
2022/12/12 21:54:38;;;;;;;7.28;3.03;;;;;;;19.17;34.36;101117.63;16140356;19;133161;-64
2022/12/12 21:59:59;;;;;;;6.28;3.60;;;;;;;19.08;34.35;101117.19;16139525;19;129931;-62
2022/12/12 22:05:21;;;;;;;10.30;3.50;;;;;;;19.01;34.22;101113.72;16140252;19;129443;-55
2022/12/12 22:10:43;;;;;;;8.02;3.08;;;;;;;18.95;34.52;101120.25;16140476;19;129183;-58
2022/12/12 22:16:09;;;;;;;9.30;3.30;;;;;;;18.90;34.64;101118.19;16134497;19;129828;-47
2022/12/12 22:21:31;;;;;;;11.57;3.58;;;;;;;18.81;34.72;101124.34;16131534;19;129627;-47
2022/12/12 22:26:53;;;;;;;9.18;3.25;;;;;;;18.70;34.47;101126.91;16135467;19;133633;-49
2022/12/12 22:32:14;;;;;;;9.73;3.67;;;;;;;18.61;34.45;101114.47;16129413;19;129360;-47
2022/12/12 22:37:36;;;;;;;7.07;3.45;;;;;;;18.51;34.48;101117.88;16132257;19;129835;-49
2022/12/12 22:42:58;;;;;;;6.57;3.80;;;;;;;18.43;34.43;101124.63;16134424;19;130690;-49
2022/12/12 22:48:20;;;;;;;6.07;3.38;;;;;;;18.36;34.72;101120.22;16129663;19;129580;-50
2022/12/12 22:53:42;;;;;;;7.68;3.63;;;;;;;18.30;34.62;101119.28;16130821;19;130540;-49
2022/12/12 22:59:05;;;;;;;14.75;3.60;;;;;;;18.21;34.37;101106.88;16132985;19;129862;-49
2022/12/12 23:04:27;;;;;;;6.05;3.65;;;;;;;18.15;34.59;101097.59;16129259;19;129542;-47
2022/12/12 23:09:51;;;;;;;4.88;3.40;;;;;;;18.10;34.32;101098.28;16130178;19;129411;-49
2022/12/12 23:15:13;;;;;;;4.78;3.30;;;;;;;18.05;34.39;101109.25;16131735;19;132135;-50
2022/12/12 23:20:35;;;;;;;6.80;3.55;;;;;;;17.99;34.27;101104.63;16127793;19;130519;-48
2022/12/12 23:26:05;;;;;;;6.13;3.17;;;;;;;17.95;34.60;101104.28;16129125;19;129738;-49
2022/12/12 23:31:33;;;;;;;5.22;3.22;;;;;;;17.91;34.42;101105.00;16128602;19;129780;-49
2022/12/12 23:36:55;;;;;;;4.72;3.28;;;;;;;17.84;34.71;101105.97;16131252;19;129740;-47
2022/12/12 23:42:17;;;;;;;4.80;3.60;;;;;;;17.81;34.75;101098.13;16129942;19;129709;-49
2022/12/12 23:47:39;;;;;;;4.32;3.42;;;;;;;17.77;34.44;101096.91;16126045;19;129396;-52
2022/12/12 23:53:01;;;;;;;4.18;3.00;;;;;;;17.74;34.47;101096.53;16127246;19;129281;-48
2022/12/12 23:58:30;;;;;;;6.30;3.47;;;;;;;17.69;34.48;101088.94;16125861;19;129381;-48
